createdAt,value
2023-01-04T00:09:56.702Z,101526.44
2023-01-04T00:20:01.787Z,101541.25
2023-01-04T00:30:06.540Z,101530.69
2023-01-04T00:40:13.416Z,101517.19
2023-01-04T00:50:17.233Z,101490.34
2023-01-04T01:00:23.541Z,101493.34
2023-01-04T01:10:27.174Z,101480.00
2023-01-04T01:20:32.372Z,101464.72
2023-01-04T01:30:36.208Z,101445.31
2023-01-04T01:40:43.964Z,101452.84
2023-01-04T01:50:52.792Z,101444.66
2023-01-04T02:00:57.837Z,101412.34
2023-01-04T02:11:01.554Z,101414.28
2023-01-04T02:21:12.804Z,101419.78
2023-01-04T02:31:29.799Z,101382.31
2023-01-04T02:41:37.235Z,101380.28
2023-01-04T02:51:44.839Z,101365.03
2023-01-04T03:02:16.498Z,101362.06
2023-01-04T03:12:35.793Z,101350.59
2023-01-04T03:23:02.189Z,101340.72
2023-01-04T03:33:27.899Z,101324.53
2023-01-04T03:43:56.002Z,101298.38
2023-01-04T03:54:06.568Z,101283.16
2023-01-04T04:04:28.011Z,101261.25
2023-01-04T04:14:33.663Z,101236.06
2023-01-04T04:24:37.283Z,101215.97
2023-01-04T04:34:42.339Z,101213.88
2023-01-04T04:44:46.009Z,101202.28
2023-01-04T04:54:50.958Z,101192.63
2023-01-04T05:04:54.657Z,101188.22
2023-01-04T05:14:59.887Z,101161.09
2023-01-04T05:25:03.990Z,101151.69
2023-01-04T05:35:10.522Z,101157.88
2023-01-04T05:45:15.172Z,101145.91
2023-01-04T05:55:20.796Z,101115.91
2023-01-04T06:05:25.641Z,101130.25
2023-01-04T06:15:35.364Z,101104.72
2023-01-04T06:25:41.844Z,101131.78
2023-01-04T06:35:55.500Z,101112.22
2023-01-04T06:46:01.415Z,101081.16
2023-01-04T06:56:09.023Z,101053.34
2023-01-04T07:06:12.774Z,101050.16
2023-01-04T07:16:17.858Z,101068.44
2023-01-04T07:26:21.530Z,101050.47
2023-01-04T07:36:26.648Z,101041.41
2023-01-04T07:46:30.469Z,101046.53
2023-01-04T07:56:35.444Z,101044.69
2023-01-04T08:06:41.180Z,101048.16
2023-01-04T08:16:46.268Z,101047.88
2023-01-04T08:26:50.000Z,101060.06
2023-01-04T08:36:55.146Z,101019.50
2023-01-04T08:46:59.275Z,101046.28
2023-01-04T08:57:04.475Z,101036.84
2023-01-04T09:07:08.318Z,101021.78
2023-01-04T09:17:13.466Z,101029.63
2023-01-04T09:27:18.196Z,101014.69
2023-01-04T09:37:23.437Z,101018.25
2023-01-04T09:47:36.968Z,101021.44
2023-01-04T09:57:54.951Z,101021.28
2023-01-04T10:07:58.763Z,101007.28
2023-01-04T10:29:08.918Z,100995.34
2023-01-04T10:39:20.400Z,100951.16
2023-01-04T10:49:38.221Z,100942.78
2023-01-04T10:59:48.058Z,100938.69
2023-01-04T11:09:58.502Z,100932.94
2023-01-04T11:20:03.644Z,100939.75
2023-01-04T11:30:17.239Z,100905.34
2023-01-04T11:40:28.031Z,100900.25
2023-01-04T11:50:41.499Z,100888.66
2023-01-04T12:00:54.146Z,100870.00
2023-01-04T12:10:58.150Z,100867.69
2023-01-04T12:21:04.601Z,100844.75
2023-01-04T12:31:32.216Z,100835.41
2023-01-04T12:42:21.984Z,100812.88
2023-01-04T13:03:48.035Z,100784.56
2023-01-04T13:13:59.322Z,100766.03
2023-01-04T13:24:07.864Z,100754.03
2023-01-04T13:34:20.326Z,100748.50
2023-01-04T13:45:18.973Z,100734.91
2023-01-04T13:55:23.377Z,100735.56
2023-01-04T14:05:28.437Z,100730.00
2023-01-04T14:15:33.781Z,100707.03
2023-01-04T14:25:44.700Z,100700.25
2023-01-04T14:36:03.822Z,100686.31
2023-01-04T14:46:10.707Z,100679.44
2023-01-04T14:56:16.629Z,100678.81
2023-01-04T15:06:21.808Z,100665.00
2023-01-04T15:16:25.628Z,100683.72
2023-01-04T15:26:30.903Z,100688.28
2023-01-04T15:36:35.279Z,100679.53
2023-01-04T15:46:40.677Z,100666.59
2023-01-04T15:56:44.627Z,100655.94
2023-01-04T16:06:49.678Z,100658.19
2023-01-04T16:16:53.482Z,100625.69
2023-01-04T16:26:58.515Z,100619.69
2023-01-04T16:37:02.271Z,100612.72
2023-01-04T16:47:07.957Z,100609.25
2023-01-04T16:57:11.767Z,100609.78
2023-01-04T17:07:16.771Z,100601.66
2023-01-04T17:17:20.465Z,100609.38
2023-01-04T17:27:25.625Z,100622.22
2023-01-04T17:37:29.361Z,100610.84
2023-01-04T17:47:34.513Z,100605.88
2023-01-04T17:57:38.588Z,100600.63
2023-01-04T18:07:43.862Z,100603.47
2023-01-04T18:17:47.643Z,100600.63
2023-01-04T18:27:53.646Z,100583.31
2023-01-04T18:37:57.356Z,100591.38
2023-01-04T18:48:02.486Z,100597.13
2023-01-04T18:58:06.571Z,100610.03
2023-01-04T19:08:11.656Z,100606.13
2023-01-04T19:18:15.487Z,100593.63
2023-01-04T19:28:20.952Z,100586.97
2023-01-04T19:38:24.786Z,100597.09
2023-01-04T19:48:31.780Z,100582.47
2023-01-04T19:58:37.416Z,100598.50
2023-01-04T20:08:43.654Z,100599.63
2023-01-04T20:18:47.447Z,100617.78
2023-01-04T20:28:52.533Z,100600.25
2023-01-04T20:38:58.757Z,100620.72
2023-01-04T20:49:04.337Z,100638.41
2023-01-04T20:59:08.088Z,100604.47
2023-01-04T21:09:13.106Z,100605.44
2023-01-04T21:19:17.313Z,100591.16
2023-01-04T21:29:22.323Z,100578.25
2023-01-04T21:39:26.209Z,100569.06
2023-01-04T21:49:31.461Z,100568.06
2023-01-04T21:59:37.531Z,100561.38
2023-01-04T22:09:42.549Z,100556.03
2023-01-04T22:19:46.273Z,100558.88
2023-01-04T22:29:51.238Z,100560.44
2023-01-04T22:39:54.835Z,100577.34
2023-01-04T22:49:59.918Z,100570.81
2023-01-04T23:00:04.124Z,100549.97
2023-01-04T23:10:09.907Z,100543.84
2023-01-04T23:20:20.092Z,100549.88
2023-01-04T23:30:25.422Z,100547.97
2023-01-04T23:40:29.216Z,100538.06
2023-01-04T23:50:34.191Z,100536.69
